createdAt,value
2022-10-20T00:01:42.478Z,100922.34
2022-10-20T00:04:44.564Z,100921.09
2022-10-20T00:07:46.515Z,100920.12
2022-10-20T00:10:56.054Z,100926.62
2022-10-20T00:13:59.609Z,100932.16
2022-10-20T00:17:01.714Z,100944.00
2022-10-20T00:20:04.353Z,100954.78
2022-10-20T00:23:06.420Z,100947.50
2022-10-20T00:26:14.569Z,100951.41
2022-10-20T00:32:23.774Z,100949.50
2022-10-20T00:35:25.833Z,100956.34
2022-10-20T00:38:27.863Z,100952.22
2022-10-20T00:41:30.479Z,100959.50
2022-10-20T00:44:50.804Z,100952.75
2022-10-20T00:47:56.964Z,100940.47
2022-10-20T00:51:01.585Z,100939.97
2022-10-20T00:54:11.676Z,100955.06
2022-10-20T00:57:13.810Z,100955.53
2022-10-20T01:00:17.246Z,100941.84
2022-10-20T01:03:29.750Z,100939.78
2022-10-20T01:06:31.749Z,100931.59
2022-10-20T01:09:34.419Z,100938.63
2022-10-20T01:12:54.817Z,100932.50
2022-10-20T01:16:05.595Z,100923.44
2022-10-20T01:19:33.992Z,100916.94
2022-10-20T01:23:13.155Z,100913.28
2022-10-20T01:26:42.885Z,100912.72
2022-10-20T01:30:11.188Z,100914.13
2022-10-20T01:33:23.193Z,100905.50
2022-10-20T01:36:35.129Z,100905.81
2022-10-20T01:39:52.641Z,100915.84
2022-10-20T01:42:57.559Z,100919.13
2022-10-20T01:46:01.605Z,100908.41
2022-10-20T01:49:05.400Z,100907.09
2022-10-20T01:52:07.401Z,100912.84
2022-10-20T01:55:14.999Z,100915.41
2022-10-20T01:58:28.862Z,100921.53
2022-10-20T02:01:58.231Z,100918.00
2022-10-20T02:05:15.352Z,100914.41
2022-10-20T02:08:28.347Z,100908.88
2022-10-20T02:11:36.593Z,100907.41
2022-10-20T02:14:39.242Z,100918.97
2022-10-20T02:17:42.729Z,100916.50
2022-10-20T02:20:50.718Z,100913.47
2022-10-20T02:23:55.025Z,100919.44
2022-10-20T02:27:01.822Z,100920.38
2022-10-20T02:30:10.757Z,100922.72
2022-10-20T02:33:14.576Z,100927.78
2022-10-20T02:36:19.794Z,100927.66
2022-10-20T02:39:21.799Z,100921.22
2022-10-20T02:42:23.722Z,100918.16
2022-10-20T02:45:25.806Z,100913.97
2022-10-20T02:48:27.847Z,100914.53
2022-10-20T02:51:29.840Z,100911.91
2022-10-20T02:54:31.837Z,100906.84
2022-10-20T02:57:34.054Z,100916.94
2022-10-20T03:00:37.240Z,100909.25
2022-10-20T03:03:39.240Z,100916.88
2022-10-20T03:06:41.511Z,100917.59
2022-10-20T03:09:44.323Z,100925.37
2022-10-20T03:12:46.658Z,100932.34
2022-10-20T03:15:48.623Z,100937.91
2022-10-20T03:18:50.584Z,100934.50
2022-10-20T03:21:52.608Z,100939.19
2022-10-20T03:24:54.655Z,100941.75
2022-10-20T03:27:56.708Z,100946.03
2022-10-20T03:30:59.108Z,100952.25
2022-10-20T03:34:01.112Z,100956.22
2022-10-20T03:37:03.419Z,100951.00
2022-10-20T03:40:06.043Z,100952.94
2022-10-20T03:43:09.570Z,100953.25
2022-10-20T03:46:12.370Z,100958.06
2022-10-20T03:49:14.496Z,100946.19
2022-10-20T03:52:16.465Z,100948.06
2022-10-20T03:55:20.038Z,100953.72
2022-10-20T03:58:22.502Z,100953.97
2022-10-20T04:01:34.881Z,100952.63
2022-10-20T04:04:36.907Z,100947.59
2022-10-20T04:07:38.857Z,100943.44
2022-10-20T04:10:41.408Z,100943.78
2022-10-20T04:13:43.446Z,100937.59
2022-10-20T04:16:45.370Z,100933.31
2022-10-20T04:19:47.592Z,100938.94
2022-10-20T04:22:49.562Z,100946.13
2022-10-20T04:25:51.689Z,100939.19
2022-10-20T04:28:56.394Z,100936.56
2022-10-20T04:31:58.597Z,100930.44
2022-10-20T04:35:00.526Z,100928.03
2022-10-20T04:38:02.481Z,100937.88
2022-10-20T04:41:05.537Z,100937.97
2022-10-20T04:44:07.481Z,100942.41
2022-10-20T04:47:10.034Z,100940.72
2022-10-20T04:50:12.244Z,100946.88
2022-10-20T04:53:14.153Z,100945.41
2022-10-20T04:56:20.559Z,100944.97
2022-10-20T04:59:22.716Z,100943.25
2022-10-20T05:02:25.125Z,100941.53
2022-10-20T05:05:27.057Z,100934.47
2022-10-20T05:08:29.121Z,100930.03
2022-10-20T05:11:35.536Z,100936.88
2022-10-20T05:14:37.518Z,100936.78
2022-10-20T05:17:39.488Z,100939.31
2022-10-20T05:21:07.236Z,100947.00
2022-10-20T05:24:06.744Z,100941.56
2022-10-20T05:27:08.903Z,100941.31
2022-10-20T05:30:11.366Z,100934.19
2022-10-20T05:33:13.365Z,100937.44
2022-10-20T05:36:21.044Z,100939.59
2022-10-20T05:39:23.837Z,100943.72
2022-10-20T05:42:25.798Z,100945.25
2022-10-20T05:45:27.689Z,100952.00
2022-10-20T05:48:29.652Z,100958.75
2022-10-20T05:51:35.208Z,100965.38
2022-10-20T05:54:37.192Z,100957.56
2022-10-20T05:57:39.215Z,100957.50
2022-10-20T06:00:52.105Z,100960.81
2022-10-20T06:03:58.709Z,100968.28
2022-10-20T06:07:00.637Z,100958.47
2022-10-20T06:10:04.224Z,100973.03
2022-10-20T06:13:06.309Z,100966.66
2022-10-20T06:16:11.599Z,100968.09
2022-10-20T06:19:13.763Z,100954.91
2022-10-20T06:22:15.778Z,100960.13
2022-10-20T06:25:17.739Z,100958.34
2022-10-20T06:28:19.739Z,100956.41
2022-10-20T06:31:24.582Z,100952.53
2022-10-20T06:34:26.639Z,100953.31
2022-10-20T06:37:28.634Z,100963.53
2022-10-20T06:40:33.889Z,100956.47
2022-10-20T06:43:36.291Z,100965.91
2022-10-20T06:46:38.407Z,100973.22
2022-10-20T06:49:40.704Z,100969.22
2022-10-20T06:52:42.945Z,100967.41
2022-10-20T06:55:45.408Z,100980.41
2022-10-20T06:58:49.204Z,100982.25
2022-10-20T07:01:51.268Z,100978.59
2022-10-20T07:04:53.229Z,100985.28
2022-10-20T07:07:55.215Z,100981.31
2022-10-20T07:11:08.796Z,100987.38
2022-10-20T07:14:13.691Z,100991.06
2022-10-20T07:17:15.685Z,100993.41
2022-10-20T07:20:18.614Z,100998.94
2022-10-20T07:23:21.303Z,101007.72
2022-10-20T07:26:23.198Z,101000.66
2022-10-20T07:29:25.384Z,100990.16
2022-10-20T07:32:27.361Z,100993.69
2022-10-20T07:35:30.638Z,100999.00
2022-10-20T07:38:32.603Z,100995.88
2022-10-20T07:41:37.037Z,100988.53
2022-10-20T07:44:39.075Z,100989.53
2022-10-20T07:47:43.104Z,100998.91
2022-10-20T07:50:49.030Z,100997.69
2022-10-20T07:54:00.688Z,100988.03
2022-10-20T07:57:02.926Z,100999.53
2022-10-20T08:00:06.073Z,100995.19
2022-10-20T08:03:09.451Z,100984.25
2022-10-20T08:06:11.470Z,100991.66
2022-10-20T08:09:13.437Z,100994.31
2022-10-20T08:12:15.484Z,100993.84
2022-10-20T08:15:23.362Z,100994.22
2022-10-20T08:18:25.512Z,101003.19
2022-10-20T08:21:27.574Z,101009.41
2022-10-20T08:24:29.585Z,101000.44
2022-10-20T08:27:31.555Z,101004.47
2022-10-20T08:30:35.405Z,101003.78
2022-10-20T08:33:37.445Z,101000.81
2022-10-20T08:36:39.521Z,100997.56
2022-10-20T08:39:41.619Z,100996.25
2022-10-20T08:42:45.423Z,100986.16
2022-10-20T08:45:47.587Z,100987.81
2022-10-20T08:48:50.933Z,100986.00
2022-10-20T08:51:53.232Z,100991.31
2022-10-20T08:54:57.058Z,100981.72
2022-10-20T08:58:05.140Z,100983.06
2022-10-20T09:01:19.937Z,100986.31
2022-10-20T09:04:34.272Z,100977.38
2022-10-20T09:07:38.772Z,100980.78
2022-10-20T09:10:53.813Z,100978.47
2022-10-20T09:13:56.252Z,100973.09
2022-10-20T09:17:00.592Z,100980.03
2022-10-20T09:20:04.127Z,100980.31
2022-10-20T09:23:16.639Z,100975.38
2022-10-20T09:26:54.223Z,100975.66
2022-10-20T09:29:56.112Z,100978.22
2022-10-20T09:32:58.308Z,100971.22
2022-10-20T09:36:16.193Z,100974.88
2022-10-20T09:39:24.090Z,100966.00
2022-10-20T09:42:31.692Z,100964.06
2022-10-20T09:45:35.292Z,100966.72
2022-10-20T09:48:49.483Z,100970.38
2022-10-20T09:55:04.394Z,100962.16
2022-10-20T09:58:06.501Z,100962.91
2022-10-20T10:01:17.951Z,100969.78
2022-10-20T10:04:37.978Z,100967.91
2022-10-20T10:07:40.058Z,100963.47
2022-10-20T10:10:57.025Z,100973.81
2022-10-20T10:13:59.118Z,100968.56
2022-10-20T10:17:02.138Z,100969.22
2022-10-20T10:20:25.858Z,100968.50
2022-10-20T10:23:30.659Z,100971.34
2022-10-20T10:26:45.415Z,100965.97
2022-10-20T10:29:47.954Z,100960.47
2022-10-20T10:32:50.379Z,100956.47
2022-10-20T10:35:52.689Z,100959.75
2022-10-20T10:38:54.805Z,100951.41
2022-10-20T10:42:06.066Z,100957.12
2022-10-20T10:45:20.260Z,100946.66
2022-10-20T10:48:45.781Z,100941.44
2022-10-20T10:51:53.625Z,100939.09
2022-10-20T10:55:21.267Z,100926.88
2022-10-20T10:58:56.319Z,100925.31
2022-10-20T11:02:13.406Z,100914.22
2022-10-20T11:05:53.667Z,100908.50
2022-10-20T11:09:01.762Z,100896.78
2022-10-20T11:12:24.775Z,100882.25
2022-10-20T11:15:45.133Z,100880.31
2022-10-20T11:19:02.475Z,100884.37
2022-10-20T11:22:22.634Z,100871.13
2022-10-20T11:25:30.385Z,100876.50
2022-10-20T11:28:44.713Z,100861.19
2022-10-20T11:31:54.750Z,100861.91
2022-10-20T11:35:20.866Z,100855.88
2022-10-20T11:38:25.859Z,100838.28
2022-10-20T11:41:43.322Z,100834.38
2022-10-20T11:44:47.885Z,100839.16
2022-10-20T11:47:54.689Z,100843.50
2022-10-20T11:51:35.631Z,100834.13
2022-10-20T11:54:55.910Z,100820.88
2022-10-20T11:58:26.850Z,100821.13
2022-10-20T12:02:10.440Z,100813.25
2022-10-20T12:05:43.384Z,100816.75
2022-10-20T12:09:13.751Z,100806.44
2022-10-20T12:12:30.895Z,100806.91
2022-10-20T12:15:33.133Z,100793.75
2022-10-20T12:18:36.599Z,100785.47
2022-10-20T12:22:00.469Z,100778.19
2022-10-20T12:25:02.370Z,100783.84
2022-10-20T12:28:22.946Z,100779.78
2022-10-20T12:31:28.305Z,100785.19
2022-10-20T12:34:40.142Z,100783.09
2022-10-20T12:37:44.931Z,100776.53
2022-10-20T12:40:58.151Z,100775.87
2022-10-20T12:44:04.841Z,100765.56
2022-10-20T12:47:09.130Z,100758.25
2022-10-20T12:50:44.746Z,100765.56
2022-10-20T12:54:01.210Z,100748.59
2022-10-20T12:57:25.228Z,100754.06
2022-10-20T13:00:27.633Z,100754.56
2022-10-20T13:03:32.573Z,100746.78
2022-10-20T13:06:34.572Z,100752.34
2022-10-20T13:09:57.963Z,100750.62
2022-10-20T13:13:02.373Z,100758.78
2022-10-20T13:16:06.814Z,100756.16
2022-10-20T13:19:17.311Z,100744.12
2022-10-20T13:22:39.661Z,100737.91
2022-10-20T13:25:48.915Z,100737.16
2022-10-20T13:28:53.708Z,100729.53
2022-10-20T13:32:40.153Z,100730.50
2022-10-20T13:35:59.720Z,100744.41
2022-10-20T13:39:23.643Z,100741.41
2022-10-20T13:42:59.857Z,100740.72
2022-10-20T13:46:07.792Z,100737.19
2022-10-20T13:49:29.406Z,100736.38
2022-10-20T13:52:38.151Z,100733.44
2022-10-20T13:56:15.990Z,100741.66
2022-10-20T14:02:28.845Z,100729.91
2022-10-20T14:05:39.066Z,100733.69
2022-10-20T14:08:44.646Z,100726.62
2022-10-20T14:11:53.377Z,100726.56
2022-10-20T14:15:02.122Z,100722.31
2022-10-20T14:18:07.917Z,100724.22
2022-10-20T14:21:18.602Z,100725.28
2022-10-20T14:24:28.739Z,100710.91
2022-10-20T14:27:36.556Z,100718.91
2022-10-20T14:30:44.364Z,100714.00
2022-10-20T14:33:48.220Z,100716.38
2022-10-20T14:36:52.184Z,100708.88
2022-10-20T14:39:55.781Z,100702.19
2022-10-20T14:43:01.451Z,100694.56
2022-10-20T14:46:04.561Z,100701.16
2022-10-20T14:49:40.570Z,100705.03
2022-10-20T14:52:42.929Z,100702.22
2022-10-20T14:55:45.142Z,100707.28
2022-10-20T14:58:59.604Z,100708.81
2022-10-20T15:02:13.297Z,100700.78
2022-10-20T15:05:36.443Z,100699.19
2022-10-20T15:08:38.758Z,100695.44
2022-10-20T15:11:42.502Z,100691.81
2022-10-20T15:14:48.435Z,100698.66
2022-10-20T15:17:53.469Z,100695.03
2022-10-20T15:20:57.505Z,100687.63
2022-10-20T15:23:59.475Z,100680.13
2022-10-20T15:27:03.073Z,100681.56
2022-10-20T15:30:17.154Z,100679.75
2022-10-20T15:33:19.514Z,100673.59
2022-10-20T15:36:33.970Z,100674.41
2022-10-20T15:39:36.810Z,100673.78
2022-10-20T15:42:39.049Z,100667.81
2022-10-20T15:45:45.172Z,100676.12
2022-10-20T15:48:47.766Z,100663.34
2022-10-20T15:51:52.773Z,100662.56
2022-10-20T15:54:55.095Z,100675.06
2022-10-20T15:57:57.542Z,100673.09
2022-10-20T16:01:08.475Z,100664.69
2022-10-20T16:04:26.698Z,100667.97
2022-10-20T16:07:29.331Z,100663.81
2022-10-20T16:10:39.073Z,100668.50
2022-10-20T16:14:01.328Z,100671.41
2022-10-20T16:17:31.040Z,100672.53
2022-10-20T16:20:53.275Z,100668.47
2022-10-20T16:24:15.466Z,100670.38
2022-10-20T16:27:37.966Z,100666.56
2022-10-20T16:31:08.849Z,100667.31
2022-10-20T16:34:15.388Z,100650.87
2022-10-20T16:37:18.692Z,100660.28
2022-10-20T16:40:22.073Z,100665.59
2022-10-20T16:43:25.271Z,100665.94
2022-10-20T16:46:27.971Z,100670.16
2022-10-20T16:49:31.245Z,100680.44
2022-10-20T16:52:35.656Z,100677.09
2022-10-20T16:55:38.265Z,100673.78
2022-10-20T16:58:41.597Z,100685.41
2022-10-20T17:01:45.794Z,100682.16
2022-10-20T17:04:49.846Z,100686.38
2022-10-20T17:07:53.452Z,100683.78
2022-10-20T17:11:02.993Z,100680.47
2022-10-20T17:14:06.680Z,100686.19
2022-10-20T17:17:10.038Z,100692.00
2022-10-20T17:20:13.943Z,100684.41
2022-10-20T17:23:18.438Z,100688.91
2022-10-20T17:26:25.618Z,100687.53
2022-10-20T17:29:30.804Z,100692.22
2022-10-20T17:32:36.852Z,100690.84
2022-10-20T17:35:40.485Z,100691.00
2022-10-20T17:38:43.814Z,100686.06
2022-10-20T17:41:47.451Z,100675.28
2022-10-20T17:44:50.906Z,100679.81
2022-10-20T17:47:55.882Z,100675.38
2022-10-20T17:51:02.844Z,100681.22
2022-10-20T17:54:06.285Z,100678.09
2022-10-20T17:57:09.414Z,100676.09
2022-10-20T18:00:22.829Z,100682.53
2022-10-20T18:03:35.537Z,100671.59
2022-10-20T18:06:39.283Z,100676.25
2022-10-20T18:09:43.119Z,100666.53
2022-10-20T18:12:47.233Z,100667.47
2022-10-20T18:15:53.162Z,100673.38
2022-10-20T18:22:06.347Z,100670.75
2022-10-20T18:25:10.123Z,100673.22
2022-10-20T18:31:28.434Z,100665.59
2022-10-20T18:34:34.116Z,100668.47
2022-10-20T18:37:41.596Z,100662.34
2022-10-20T18:40:45.704Z,100661.13
2022-10-20T18:43:57.778Z,100663.81
2022-10-20T18:47:01.713Z,100658.09
2022-10-20T18:50:05.166Z,100664.28
2022-10-20T18:53:10.650Z,100659.94
2022-10-20T18:56:17.217Z,100660.03
2022-10-20T18:59:21.050Z,100660.03
2022-10-20T19:02:27.283Z,100657.63
2022-10-20T19:05:30.924Z,100658.41
2022-10-20T19:08:37.645Z,100658.47
2022-10-20T19:11:43.531Z,100659.41
2022-10-20T19:14:48.103Z,100660.66
2022-10-20T19:17:52.978Z,100657.91
2022-10-20T19:20:58.691Z,100659.00
2022-10-20T19:24:15.392Z,100648.53
2022-10-20T19:27:26.683Z,100651.94
2022-10-20T19:30:35.461Z,100653.97
2022-10-20T19:33:39.053Z,100650.41
2022-10-20T19:36:42.367Z,100644.41
2022-10-20T19:39:48.322Z,100643.47
2022-10-20T19:42:51.765Z,100642.84
2022-10-20T19:45:56.408Z,100636.72
2022-10-20T19:49:00.581Z,100639.28
2022-10-20T19:52:05.942Z,100640.03
2022-10-20T19:55:09.357Z,100638.50
2022-10-20T19:58:12.538Z,100642.06
2022-10-20T20:01:17.519Z,100642.12
2022-10-20T20:04:21.601Z,100645.09
2022-10-20T20:07:24.665Z,100647.56
2022-10-20T20:10:27.855Z,100638.94
2022-10-20T20:13:31.548Z,100640.75
2022-10-20T20:16:35.585Z,100643.63
2022-10-20T20:19:38.748Z,100647.28
2022-10-20T20:22:42.066Z,100648.97
2022-10-20T20:25:45.875Z,100659.78
2022-10-20T20:28:48.665Z,100656.19
2022-10-20T20:31:51.349Z,100652.69
2022-10-20T20:34:53.708Z,100658.91
2022-10-20T20:37:56.234Z,100664.25
2022-10-20T20:40:59.878Z,100661.63
2022-10-20T20:44:05.566Z,100656.19
2022-10-20T20:47:10.155Z,100651.00
2022-10-20T20:50:12.693Z,100647.41
2022-10-20T20:53:14.652Z,100645.72
2022-10-20T20:56:20.546Z,100643.97
2022-10-20T20:59:25.280Z,100640.44
2022-10-20T21:02:27.208Z,100637.94
2022-10-20T21:05:29.198Z,100644.06
2022-10-20T21:08:33.194Z,100640.66
2022-10-20T21:11:35.816Z,100644.37
2022-10-20T21:14:37.775Z,100628.69
2022-10-20T21:17:39.744Z,100634.91
2022-10-20T21:20:41.744Z,100629.84
2022-10-20T21:23:44.026Z,100625.50
2022-10-20T21:26:46.191Z,100629.22
2022-10-20T21:29:51.816Z,100626.59
2022-10-20T21:32:53.833Z,100621.22
2022-10-20T21:36:02.845Z,100617.56
2022-10-20T21:39:07.045Z,100603.28
2022-10-20T21:42:09.142Z,100605.56
2022-10-20T21:45:15.402Z,100605.56
2022-10-20T21:48:20.222Z,100621.31
2022-10-20T21:51:28.310Z,100622.25
2022-10-20T21:54:30.493Z,100617.75
2022-10-20T21:57:32.396Z,100627.59
2022-10-20T22:00:34.443Z,100621.41
2022-10-20T22:03:36.511Z,100624.34
2022-10-20T22:06:38.876Z,100625.34
2022-10-20T22:09:40.901Z,100627.19
2022-10-20T22:12:42.942Z,100623.84
2022-10-20T22:15:45.960Z,100618.81
2022-10-20T22:18:48.015Z,100615.44
2022-10-20T22:21:52.121Z,100622.59
2022-10-20T22:24:54.139Z,100615.03
2022-10-20T22:27:56.078Z,100618.31
2022-10-20T22:31:13.501Z,100614.81
2022-10-20T22:34:35.156Z,100613.19
2022-10-20T22:37:55.658Z,100609.75
2022-10-20T22:41:15.025Z,100601.12
2022-10-20T22:44:35.167Z,100603.91
2022-10-20T22:47:54.571Z,100601.94
2022-10-20T22:51:17.724Z,100606.41
2022-10-20T22:54:36.986Z,100607.63
2022-10-20T23:01:23.290Z,100594.81
2022-10-20T23:04:30.115Z,100594.41
2022-10-20T23:07:42.975Z,100592.94
2022-10-20T23:11:07.497Z,100593.94
2022-10-20T23:14:25.693Z,100598.66
2022-10-20T23:17:46.105Z,100593.69
2022-10-20T23:21:04.677Z,100600.19
2022-10-20T23:24:25.415Z,100599.69
2022-10-20T23:27:46.238Z,100598.09
2022-10-20T23:31:16.384Z,100602.66
2022-10-20T23:37:55.816Z,100603.84
2022-10-20T23:41:15.395Z,100594.53
2022-10-20T23:44:20.800Z,100592.97
2022-10-20T23:47:22.849Z,100590.38
2022-10-20T23:50:26.073Z,100592.34
2022-10-20T23:53:28.196Z,100582.84
2022-10-20T23:56:30.207Z,100574.03
2022-10-20T23:59:32.178Z,100568.94
